EGNX/EMA METAR and TAF weather

Enter ICAO airport designator
Station Type Date Time Source
EGNX METAR 2022/01/19 20:50 UTC NOAA

EGNX 192050Z 28007KT CAVOK 02/01 Q1029


Station Type Date Time Source
EGNX Decoded METAR 2022/01/19 20:50 UTC NOAA

East Midlands, United Kingdom (EGNX) 52-50N 001-20W
Jan 19, 2022 - 03:50 PM EST / 2022.01.19 2050 UTC
Wind: from the W (280 degrees) at 8 MPH (7 KT):0
Visibility: greater than 7 mile(s):0
Temperature: 35 F (2 C)
Windchill: 28 F (-2 C):1
Dew Point: 33 F (1 C)
Relative Humidity: 93%
Pressure (altimeter): 30.39 in. Hg (1029 hPa)
ob: EGNX 192050Z 28007KT CAVOK 02/01 Q1029
cycle: 21

Station Type Date Time Source
EGNX TAF 2022/01/19 18:09 UTC NOAA

TAF EGNX 191700Z 1918/2018 30006KT 9999 SCT030

Example: see airport list